Time;durP1;ratioP1;P1;durP2;ratioP2;P2;SDS_P1;SDS_P2;PMS_P1;PMS_P2;Temp;Humidity;BMP_temperature;BMP_pressure;BME280_temperature;BME280_humidity;BME280_pressure;Samples;Min_cycle;Max_cycle;Signal;HPM_P1;HPM_P2
2023/04/25 00:00:59;;;;;;;25.50;16.40;;;;;;;9.35;100.00;100440.66;106702;1255;73363;-86
2023/04/25 00:03:26;;;;;;;30.10;17.50;;;;;;;9.30;100.00;100436.59;106956;1257;63028;-86
2023/04/25 00:05:53;;;;;;;29.40;19.60;;;;;;;9.24;100.00;100435.71;106361;1251;61066;-85
2023/04/25 00:08:20;;;;;;;21.20;15.40;;;;;;;9.18;100.00;100436.93;106195;1251;74470;-85
2023/04/25 00:10:48;;;;;;;23.60;15.60;;;;;;;9.16;100.00;100435.69;106454;1256;64811;-87
2023/04/25 00:13:17;;;;;;;26.30;14.10;;;;;;;9.12;100.00;100437.60;106469;1253;74478;-86
2023/04/25 00:15:44;;;;;;;24.90;15.20;;;;;;;9.09;100.00;100435.38;106400;1251;62832;-87
2023/04/25 00:18:11;;;;;;;25.10;15.40;;;;;;;9.06;100.00;100437.23;106428;1251;59851;-86
2023/04/25 00:20:38;;;;;;;21.30;14.10;;;;;;;9.07;100.00;100435.27;106451;1257;74823;-86
2023/04/25 00:23:04;;;;;;;25.80;14.30;;;;;;;9.06;100.00;100434.85;107158;1253;64768;-83
2023/04/25 00:25:33;;;;;;;21.60;13.40;;;;;;;9.05;100.00;100431.23;107240;1251;73465;-83
2023/04/25 00:28:00;;;;;;;16.90;10.10;;;;;;;9.08;100.00;100426.84;106723;1251;62996;-86
2023/04/25 00:30:27;;;;;;;19.60;10.30;;;;;;;9.09;100.00;100425.23;106525;1251;59766;-87
2023/04/25 00:32:53;;;;;;;15.50;9.90;;;;;;;9.09;100.00;100422.60;106648;1255;72365;-85
2023/04/25 00:35:21;;;;;;;24.00;11.30;;;;;;;9.07;100.00;100423.23;106572;1251;65193;-86
2023/04/25 00:37:48;;;;;;;26.20;12.40;;;;;;;9.05;100.00;100417.44;106592;1251;73861;-87
2023/04/25 00:40:15;;;;;;;13.60;9.40;;;;;;;9.01;100.00;100415.42;106729;1257;63522;-87
2023/04/25 00:42:41;;;;;;;15.90;10.70;;;;;;;8.92;100.00;100412.63;106505;1253;60740;-86
2023/04/25 00:45:08;;;;;;;15.60;9.80;;;;;;;8.81;100.00;100413.05;106513;1253;74592;-87
2023/04/25 00:47:35;;;;;;;17.10;10.40;;;;;;;8.74;100.00;100408.04;106342;1251;65676;-87
2023/04/25 00:50:03;;;;;;;16.20;10.10;;;;;;;8.72;100.00;100407.98;106300;1255;73658;-85
2023/04/25 00:52:31;;;;;;;20.20;11.80;;;;;;;8.72;100.00;100403.44;106650;1251;62926;-85
2023/04/25 00:54:58;;;;;;;14.20;10.50;;;;;;;8.71;100.00;100399.98;106675;1251;60704;-86
2023/04/25 00:57:25;;;;;;;19.20;11.00;;;;;;;8.69;100.00;100396.77;106764;1251;73686;-85
2023/04/25 00:59:52;;;;;;;16.20;10.60;;;;;;;8.68;100.00;100397.52;106888;1255;64589;-86
2023/04/25 01:02:20;;;;;;;18.60;9.70;;;;;;;8.67;100.00;100392.05;106393;1251;73971;-87
2023/04/25 01:04:47;;;;;;;14.20;9.70;;;;;;;8.69;100.00;100396.27;106522;1253;62927;-86
2023/04/25 01:07:16;;;;;;;15.20;8.60;;;;;;;8.71;100.00;100397.89;106464;1253;61270;-87
2023/04/25 01:09:43;;;;;;;11.40;7.70;;;;;;;8.65;100.00;100403.11;106253;1253;74738;-86
2023/04/25 01:12:10;;;;;;;16.40;9.50;;;;;;;8.56;100.00;100398.61;106476;1255;64692;-86
2023/04/25 01:14:38;;;;;;;18.40;9.40;;;;;;;8.56;100.00;100395.78;106418;1253;72677;-85
2023/04/25 01:17:07;;;;;;;12.40;9.20;;;;;;;8.61;100.00;100394.13;106443;1255;61948;-87
2023/04/25 01:19:35;;;;;;;14.30;8.40;;;;;;;8.65;100.00;100395.81;106353;1253;61448;-86
2023/04/25 01:22:03;;;;;;;13.20;8.90;;;;;;;8.66;100.00;100394.69;106374;1255;74837;-90
2023/04/25 01:24:33;;;;;;;15.60;8.10;;;;;;;8.65;100.00;100395.13;106502;1252;63846;-87
2023/04/25 01:27:01;;;;;;;12.00;8.30;;;;;;;8.64;100.00;100391.36;107114;1252;73333;-84
2023/04/25 01:29:28;;;;;;;15.70;8.20;;;;;;;8.63;100.00;100393.48;107771;1253;61092;-87
2023/04/25 01:31:55;;;;;;;13.70;9.30;;;;;;;8.62;100.00;100390.71;106582;1251;61020;-86
2023/04/25 01:34:22;;;;;;;16.30;9.10;;;;;;;8.61;100.00;100389.95;106402;1256;74830;-85
2023/04/25 01:36:49;;;;;;;17.20;8.60;;;;;;;8.58;100.00;100387.48;106151;1253;63222;-86
2023/04/25 01:39:19;;;;;;;16.50;9.20;;;;;;;8.57;100.00;100388.39;106286;1253;73598;-88
2023/04/25 01:41:47;;;;;;;14.50;8.60;;;;;;;8.57;100.00;100383.15;106363;1251;61727;-87
2023/04/25 01:44:14;;;;;;;14.10;8.70;;;;;;;8.59;100.00;100385.71;106787;1253;61018;-86
2023/04/25 01:46:41;;;;;;;15.70;8.60;;;;;;;8.57;100.00;100385.61;106497;1252;74806;-88
2023/04/25 01:49:08;;;;;;;21.30;8.70;;;;;;;8.50;100.00;100391.40;106629;1257;64579;-87
2023/04/25 01:51:35;;;;;;;15.80;9.40;;;;;;;8.45;100.00;100393.25;106373;1251;73853;-87
2023/04/25 01:54:02;;;;;;;12.80;8.90;;;;;;;8.40;100.00;100389.31;106817;1253;60566;-86
2023/04/25 01:56:32;;;;;;;13.20;8.80;;;;;;;8.40;100.00;100385.15;106987;1251;61357;-86
2023/04/25 01:58:59;;;;;;;15.30;8.90;;;;;;;8.43;100.00;100383.41;107060;1255;75124;-85
2023/04/25 02:01:47;;;;;;;12.60;9.20;;;;;;;8.45;100.00;100376.38;107329;1251;63700;-87
2023/04/25 02:04:21;;;;;;;16.40;8.90;;;;;;;8.44;100.00;100372.75;106679;1255;73411;-87
2023/04/25 02:06:49;;;;;;;12.80;8.60;;;;;;;8.43;100.00;100372.48;106951;1251;62018;-88
2023/04/25 02:09:17;;;;;;;9.30;7.70;;;;;;;8.41;100.00;100370.84;106587;1253;61410;-86
2023/04/25 02:11:48;;;;;;;15.90;7.80;;;;;;;8.39;100.00;100366.58;107325;1251;74786;-85
2023/04/25 02:14:28;;;;;;;14.50;8.30;;;;;;;8.37;100.00;100364.38;107348;1253;63792;-87
2023/04/25 02:17:25;;;;;;;11.20;7.80;;;;;;;8.39;100.00;100362.23;106910;1253;73843;-88
2023/04/25 02:19:51;;;;;;;15.30;9.00;;;;;;;8.39;100.00;100358.71;106961;1253;62142;-88
2023/04/25 02:22:18;;;;;;;11.30;8.40;;;;;;;8.37;100.00;100357.98;106801;1256;62130;-85
2023/04/25 02:24:46;;;;;;;8.90;7.80;;;;;;;8.34;100.00;100356.02;106539;1253;75006;-88
2023/04/25 02:27:14;;;;;;;19.50;11.10;;;;;;;8.31;100.00;100359.86;106779;1252;63639;-86
2023/04/25 02:29:41;;;;;;;19.20;13.50;;;;;;;8.29;100.00;100358.73;106947;1253;73340;-88
2023/04/25 02:32:10;;;;;;;25.70;15.20;;;;;;;8.25;100.00;100359.67;106925;1251;60499;-90
2023/04/25 02:34:41;;;;;;;21.20;14.10;;;;;;;8.22;100.00;100355.10;106806;1254;61146;-86
2023/04/25 02:37:08;;;;;;;19.30;12.90;;;;;;;8.22;100.00;100354.59;106351;1251;72766;-87
2023/04/25 02:39:35;;;;;;;15.60;12.30;;;;;;;8.20;100.00;100352.23;106757;1253;63649;-87
2023/04/25 02:42:02;;;;;;;20.40;12.90;;;;;;;8.18;100.00;100351.13;107015;1251;71755;-87
2023/04/25 02:44:29;;;;;;;21.40;14.10;;;;;;;8.19;100.00;100350.58;107270;1251;63130;-86
2023/04/25 02:46:56;;;;;;;19.00;12.20;;;;;;;8.22;100.00;100351.61;108317;1253;60734;-87
2023/04/25 02:49:23;;;;;;;21.80;12.10;;;;;;;8.26;100.00;100352.62;108661;1251;73657;-86
2023/04/25 02:51:52;;;;;;;24.70;13.80;;;;;;;8.32;100.00;100352.69;108814;1253;63659;-85
2023/04/25 02:54:19;;;;;;;26.80;14.60;;;;;;;8.37;100.00;100349.23;107077;1253;72325;-87
2023/04/25 02:56:47;;;;;;;22.40;13.40;;;;;;;8.43;100.00;100357.10;106725;1252;62467;-86
2023/04/25 02:59:21;;;;;;;25.40;13.90;;;;;;;8.48;100.00;100357.02;107130;1252;61406;-86
2023/04/25 03:01:48;;;;;;;21.10;13.90;;;;;;;8.54;100.00;100354.98;106677;1252;73075;-87
2023/04/25 03:04:15;;;;;;;21.90;13.50;;;;;;;8.60;100.00;100352.54;106455;1256;64576;-88
2023/04/25 03:06:42;;;;;;;24.20;13.90;;;;;;;8.66;100.00;100356.55;106457;1253;72310;-86
2023/04/25 03:09:09;;;;;;;25.80;13.90;;;;;;;8.72;100.00;100358.82;106778;1253;60444;-87
2023/04/25 03:11:38;;;;;;;26.10;16.50;;;;;;;8.78;100.00;100358.86;106795;1253;60432;-85
2023/04/25 03:14:05;;;;;;;18.80;15.80;;;;;;;8.80;100.00;100360.30;107193;1253;75399;-87
2023/04/25 03:16:32;;;;;;;24.70;14.40;;;;;;;8.81;100.00;100363.36;106733;1253;64691;-88
2023/04/25 03:18:59;;;;;;;25.00;15.70;;;;;;;8.82;100.00;100363.52;106481;1251;74295;-89
2023/04/25 03:21:27;;;;;;;23.70;15.30;;;;;;;8.82;100.00;100362.77;106641;1253;62821;-86
2023/04/25 03:23:53;;;;;;;24.10;14.60;;;;;;;8.85;100.00;100362.30;106464;1257;60356;-87
2023/04/25 03:26:21;;;;;;;23.70;13.30;;;;;;;8.88;100.00;100362.80;107544;1251;74775;-88
2023/04/25 03:28:48;;;;;;;24.60;15.00;;;;;;;8.93;100.00;100365.48;107223;1253;63801;-86
2023/04/25 03:31:15;;;;;;;22.40;13.70;;;;;;;8.98;100.00;100366.73;106399;1257;72431;-87
2023/04/25 03:33:42;;;;;;;27.40;14.40;;;;;;;9.04;100.00;100366.56;106427;1251;62767;-87
2023/04/25 03:36:11;;;;;;;24.30;14.10;;;;;;;9.11;100.00;100366.34;106415;1256;60689;-85
2023/04/25 03:38:38;;;;;;;17.30;12.60;;;;;;;9.21;100.00;100365.95;106457;1257;75744;-86
2023/04/25 03:41:05;;;;;;;22.30;13.40;;;;;;;9.31;100.00;100367.80;106462;1252;65233;-84
2023/04/25 03:43:39;;;;;;;21.20;14.20;;;;;;;9.40;100.00;100371.30;106963;1256;73715;-85
2023/04/25 03:46:10;;;;;;;19.50;14.80;;;;;;;9.45;100.00;100371.52;106568;1257;62502;-90
2023/04/25 03:48:37;;;;;;;26.60;15.90;;;;;;;9.50;100.00;100371.39;106396;1252;60552;-87
2023/04/25 03:51:05;;;;;;;20.70;12.50;;;;;;;9.55;100.00;100369.18;106322;1260;73706;-86
2023/04/25 03:53:41;;;;;;;25.10;16.40;;;;;;;9.64;100.00;100369.19;107052;1257;64416;-85
2023/04/25 03:56:19;;;;;;;23.90;16.40;;;;;;;9.77;100.00;100367.70;106356;1251;71974;-87
2023/04/25 03:58:49;;;;;;;21.30;13.30;;;;;;;9.88;100.00;100364.37;106416;1255;63045;-88
2023/04/25 04:01:17;;;;;;;19.50;14.40;;;;;;;10.01;100.00;100363.96;106813;1251;60365;-88
2023/04/25 04:03:44;;;;;;;22.70;14.50;;;;;;;10.14;100.00;100358.79;106736;1256;75710;-87
2023/04/25 04:06:13;;;;;;;18.30;12.80;;;;;;;10.25;100.00;100358.63;106545;1251;65804;-89
2023/04/25 04:08:43;;;;;;;23.40;13.40;;;;;;;10.37;100.00;100353.70;106464;1251;73424;-90
2023/04/25 04:11:11;;;;;;;20.50;13.40;;;;;;;10.49;100.00;100352.95;106930;1253;62522;-87
2023/04/25 04:13:38;;;;;;;21.20;12.90;;;;;;;10.62;100.00;100350.34;106524;1253;61124;-89
2023/04/25 04:16:06;;;;;;;19.00;12.60;;;;;;;10.75;100.00;100347.59;106792;1253;73931;-87
2023/04/25 04:18:33;;;;;;;22.10;12.50;;;;;;;10.87;100.00;100345.77;106839;1251;64612;-88
2023/04/25 04:21:02;;;;;;;15.70;11.60;;;;;;;10.99;100.00;100342.85;107108;1255;73813;-87
2023/04/25 04:23:32;;;;;;;15.70;11.70;;;;;;;11.09;100.00;100343.77;106741;1255;60425;-91
2023/04/25 04:26:00;;;;;;;13.40;11.10;;;;;;;11.19;100.00;100342.04;106131;1261;60460;-87
2023/04/25 04:29:00;;;;;;;13.40;9.10;;;;;;;11.32;100.00;100345.89;106479;1252;74346;-87
2023/04/25 04:31:52;;;;;;;14.90;9.80;;;;;;;11.42;100.00;100347.70;106556;1255;65404;-85
2023/04/25 04:34:20;;;;;;;16.90;11.10;;;;;;;11.51;100.00;100347.45;106666;1255;73402;-88
2023/04/25 04:36:47;;;;;;;13.10;9.90;;;;;;;11.58;100.00;100351.80;106113;1253;61691;-89
2023/04/25 04:39:14;;;;;;;14.50;9.30;;;;;;;11.65;100.00;100352.59;107612;1253;60354;-88
2023/04/25 04:42:05;;;;;;;11.60;8.40;;;;;;;11.76;100.00;100352.04;106687;1251;74749;-86
2023/04/25 04:44:44;;;;;;;18.00;11.00;;;;;;;11.88;99.94;100352.95;106762;1253;62917;-87
2023/04/25 04:47:23;;;;;;;17.50;12.80;;;;;;;12.01;99.28;100351.52;106284;1253;73752;-88
2023/04/25 04:50:03;;;;;;;17.40;12.40;;;;;;;12.14;98.73;100353.09;106468;1251;60420;-88
2023/04/25 04:52:41;;;;;;;22.60;13.70;;;;;;;12.26;97.95;100353.10;106742;1253;61150;-88
2023/04/25 04:55:28;;;;;;;20.20;13.00;;;;;;;12.35;97.22;100351.55;106833;1253;74829;-88
2023/04/25 04:58:24;;;;;;;18.70;12.60;;;;;;;12.42;96.42;100352.69;106777;1253;65253;-86
2023/04/25 05:01:02;;;;;;;13.40;10.50;;;;;;;12.44;95.99;100352.38;106885;1253;73176;-88
2023/04/25 05:03:33;;;;;;;16.20;10.70;;;;;;;12.47;95.95;100350.38;106578;1255;63580;-89
2023/04/25 05:06:29;;;;;;;14.50;10.50;;;;;;;12.52;95.76;100345.44;106657;1251;60451;-89
2023/04/25 05:09:15;;;;;;;12.30;9.40;;;;;;;12.58;95.77;100344.33;106844;1255;75778;-86
2023/04/25 05:12:03;;;;;;;11.30;9.40;;;;;;;12.66;95.70;100346.23;106710;1255;64578;-89
2023/04/25 05:14:50;;;;;;;14.20;10.20;;;;;;;12.72;95.71;100344.38;107196;1251;73864;-88
2023/04/25 05:17:50;;;;;;;16.00;9.60;;;;;;;12.82;95.08;100344.67;106961;1256;60583;-89
2023/04/25 05:20:23;;;;;;;12.80;9.40;;;;;;;12.88;93.70;100343.36;106734;1257;60548;-90
2023/04/25 05:23:15;;;;;;;15.40;9.40;;;;;;;12.88;93.40;100344.45;107552;1251;74028;-88
2023/04/25 05:25:45;;;;;;;12.30;9.90;;;;;;;12.90;93.51;100343.59;107535;1253;64160;-87
2023/04/25 05:28:36;;;;;;;16.90;9.60;;;;;;;12.98;93.31;100344.17;106809;1254;73749;-88
2023/04/25 05:31:24;;;;;;;16.50;9.50;;;;;;;13.05;92.87;100341.02;106606;1256;61790;-88
2023/04/25 05:34:00;;;;;;;23.10;9.70;;;;;;;13.10;92.90;100340.01;106828;1255;60448;-88
2023/04/25 05:36:39;;;;;;;16.30;9.40;;;;;;;13.16;92.41;100336.20;106890;1253;73828;-90
2023/04/25 05:39:06;;;;;;;15.70;9.10;;;;;;;13.21;91.96;100332.99;106898;1251;64979;-89
2023/04/25 05:41:53;;;;;;;12.80;8.40;;;;;;;13.23;92.15;100328.92;107810;1251;74037;-88
2023/04/25 05:44:52;;;;;;;11.50;7.80;;;;;;;13.34;92.07;100333.44;108655;1251;60044;-88
2023/04/25 05:47:38;;;;;;;12.70;9.30;;;;;;;13.41;91.72;100332.52;108167;1251;61367;-88
2023/04/25 05:50:26;;;;;;;9.90;8.80;;;;;;;13.45;91.37;100328.20;107373;1252;74626;-88
2023/04/25 05:53:02;;;;;;;10.50;8.10;;;;;;;13.45;91.63;100329.77;106890;1256;63852;-86
2023/04/25 05:55:32;;;;;;;12.10;8.10;;;;;;;13.48;91.55;100333.24;106987;1255;74025;-89
2023/04/25 05:58:02;;;;;;;17.40;9.20;;;;;;;13.54;91.69;100332.48;106867;1253;63237;-88
2023/04/25 06:00:30;;;;;;;14.80;8.50;;;;;;;13.57;91.67;100333.64;106770;1257;60421;-87
2023/04/25 06:02:59;;;;;;;13.00;8.10;;;;;;;13.60;91.78;100328.07;107648;1251;75159;-87
2023/04/25 06:05:27;;;;;;;14.50;8.70;;;;;;;13.68;91.41;100328.93;107835;1255;63710;-87
2023/04/25 06:07:59;;;;;;;14.90;8.70;;;;;;;13.75;91.13;100327.85;108302;1251;72425;-88
2023/04/25 06:10:28;;;;;;;18.90;8.50;;;;;;;13.83;90.92;100323.85;109015;1251;60352;-89
2023/04/25 06:12:55;;;;;;;14.90;7.80;;;;;;;13.89;90.85;100321.45;109432;1251;60180;-87
2023/04/25 06:15:23;;;;;;;12.30;7.90;;;;;;;13.94;90.64;100323.91;109757;1251;73739;-88
2023/04/25 06:17:55;;;;;;;12.00;8.50;;;;;;;13.97;90.00;100326.67;109759;1251;64093;-89
2023/04/25 06:20:26;;;;;;;10.80;7.60;;;;;;;14.00;90.17;100329.52;108962;1253;72801;-88
2023/04/25 06:22:57;;;;;;;12.70;7.20;;;;;;;14.05;89.75;100326.36;107370;1252;61394;-89
2023/04/25 06:25:45;;;;;;;8.90;6.80;;;;;;;14.10;89.37;100328.08;107106;1253;61339;-88
2023/04/25 06:28:13;;;;;;;11.10;7.60;;;;;;;14.14;89.38;100329.52;107277;1251;75156;-88
2023/04/25 06:30:40;;;;;;;11.90;8.00;;;;;;;14.21;89.39;100332.80;107824;1257;63738;-85
2023/04/25 06:33:11;;;;;;;14.70;7.50;;;;;;;14.27;89.19;100330.36;107563;1251;73589;-87
2023/04/25 06:35:38;;;;;;;11.20;7.80;;;;;;;14.39;88.66;100329.45;106931;1255;61204;-90
2023/04/25 06:38:05;;;;;;;13.50;7.70;;;;;;;14.52;88.27;100326.51;106616;1256;60968;-89
2023/04/25 06:40:33;;;;;;;14.60;8.20;;;;;;;14.62;88.03;100329.93;106497;1253;74498;-89
2023/04/25 06:43:00;;;;;;;13.70;8.40;;;;;;;14.70;87.53;100327.11;106631;1256;64899;-89
2023/04/25 06:45:53;;;;;;;12.80;8.40;;;;;;;14.82;87.11;100329.80;106455;1255;73812;-89
2023/04/25 06:48:22;;;;;;;12.80;8.20;;;;;;;14.93;86.53;100331.60;106861;1255;60415;-86
2023/04/25 06:50:50;;;;;;;9.60;7.90;;;;;;;15.01;85.98;100330.55;107369;1256;60637;-88
2023/04/25 06:53:18;;;;;;;13.90;9.60;;;;;;;15.11;85.98;100331.63;107229;1253;74345;-88
2023/04/25 06:55:48;;;;;;;14.50;9.10;;;;;;;15.24;85.99;100332.90;107409;1251;64455;-88
2023/04/25 06:58:21;;;;;;;10.70;7.20;;;;;;;15.35;85.62;100332.25;107035;1256;72629;-89
2023/04/25 07:01:00;;;;;;;14.70;8.40;;;;;;;15.48;85.00;100336.33;106645;1255;60500;-89
2023/04/25 07:03:28;;;;;;;12.50;8.60;;;;;;;15.60;84.58;100336.00;106814;1251;60454;-88
2023/04/25 07:05:59;;;;;;;11.10;8.80;;;;;;;15.76;84.06;100334.80;107645;1251;73743;-88
2023/04/25 07:08:29;;;;;;;13.00;9.20;;;;;;;15.93;83.26;100339.38;107584;1254;63710;-87
2023/04/25 07:10:58;;;;;;;12.70;9.20;;;;;;;16.12;82.96;100337.11;107670;1256;72665;-90
2023/04/25 07:13:26;;;;;;;13.70;9.80;;;;;;;16.33;82.26;100337.96;107202;1255;60530;-89
2023/04/25 07:15:53;;;;;;;12.20;9.60;;;;;;;16.55;81.18;100338.47;107822;1251;60696;-88
2023/04/25 07:18:24;;;;;;;15.50;10.10;;;;;;;16.77;79.77;100338.75;108127;1251;73694;-88
2023/04/25 07:21:12;;;;;;;14.30;9.70;;;;;;;17.07;78.33;100340.33;108557;1251;63883;-88
2023/04/25 07:23:43;;;;;;;13.50;10.80;;;;;;;17.36;76.17;100340.84;108613;1251;72421;-88
2023/04/25 07:26:15;;;;;;;18.30;10.40;;;;;;;17.65;74.69;100340.42;108721;1251;60859;-90
2023/04/25 07:29:17;;;;;;;14.50;10.90;;;;;;;17.98;72.10;100342.98;109019;1251;60653;-90
2023/04/25 07:31:49;;;;;;;19.90;11.90;;;;;;;18.34;70.70;100339.67;109172;1251;73872;-88
2023/04/25 07:34:17;;;;;;;14.40;11.40;;;;;;;18.77;70.12;100338.64;108649;1251;64867;-88
2023/04/25 07:36:46;;;;;;;14.80;11.80;;;;;;;19.29;68.90;100339.91;108370;1256;71896;-88
2023/04/25 07:39:15;;;;;;;26.80;18.80;;;;;;;19.78;65.35;100337.67;108562;1251;61490;-86
2023/04/25 07:41:44;;;;;;;26.00;18.00;;;;;;;20.24;62.41;100332.22;108571;1251;60237;-87
2023/04/25 07:44:18;;;;;;;26.50;19.10;;;;;;;20.78;61.19;100332.15;108586;1251;73805;-89
2023/04/25 07:46:48;;;;;;;39.80;26.30;;;;;;;21.33;57.14;100327.67;108669;1251;62634;-89
2023/04/25 07:49:19;;;;;;;36.70;24.10;;;;;;;21.81;53.54;100328.33;108588;1251;72658;-87
2023/04/25 07:51:48;;;;;;;38.90;25.90;;;;;;;22.28;51.42;100326.98;108784;1251;60454;-88
2023/04/25 07:54:19;;;;;;;35.30;25.80;;;;;;;22.76;50.57;100324.98;108306;1256;60473;-86
2023/04/25 07:57:06;;;;;;;36.70;26.50;;;;;;;23.21;48.70;100322.96;108315;1251;74653;-87
2023/04/25 07:59:52;;;;;;;27.80;21.90;;;;;;;23.66;46.19;100319.36;108791;1251;62711;-87
2023/04/25 08:02:37;;;;;;;29.80;21.80;;;;;;;24.04;44.68;100319.95;109051;1251;71116;-87
2023/04/25 08:05:34;;;;;;;29.00;21.90;;;;;;;24.32;44.18;100310.17;109073;1251;60433;-87
2023/04/25 08:08:07;;;;;;;31.00;22.50;;;;;;;24.47;44.78;100307.57;109167;1251;60330;-88
2023/04/25 08:10:43;;;;;;;26.90;20.80;;;;;;;24.58;43.72;100306.22;109130;1251;73732;-89
2023/04/25 08:13:41;;;;;;;24.40;20.50;;;;;;;24.72;42.30;100300.73;109208;1251;62687;-89
2023/04/25 08:16:26;;;;;;;22.60;19.00;;;;;;;24.86;42.97;100299.55;109528;1251;72589;-88
2023/04/25 08:19:23;;;;;;;21.10;16.40;;;;;;;25.10;41.44;100298.77;109305;1251;60751;-87
2023/04/25 08:22:19;;;;;;;31.10;21.70;;;;;;;25.30;41.85;100293.04;108906;1251;59104;-86
2023/04/25 08:25:14;;;;;;;31.00;20.40;;;;;;;25.40;40.27;100292.91;108956;1251;72384;-87
2023/04/25 08:27:55;;;;;;;27.00;19.40;;;;;;;25.44;40.14;100289.66;109457;1251;63747;-89
2023/04/25 08:30:41;;;;;;;28.40;14.10;;;;;;;25.56;39.74;100291.14;108744;1251;72775;-89
2023/04/25 08:33:49;;;;;;;19.70;14.50;;;;;;;25.59;38.51;100283.38;108813;1251;60651;-88
2023/04/25 08:36:47;;;;;;;19.70;13.10;;;;;;;25.72;38.76;100284.19;109147;1251;61466;-88
2023/04/25 08:39:57;;;;;;;17.20;12.80;;;;;;;25.98;37.96;100284.15;109324;1251;75257;-87
2023/04/25 08:42:57;;;;;;;19.70;13.20;;;;;;;26.10;37.38;100282.88;108785;1251;63735;-86
2023/04/25 08:48:18;;;;;;;13.20;9.20;;;;;;;26.46;36.40;100277.00;106226;1289;600086;-88
2023/04/25 08:50:49;;;;;;;13.10;11.10;;;;;;;26.70;36.22;100275.81;108201;1264;60977;-88
2023/04/25 08:53:20;;;;;;;16.80;11.90;;;;;;;26.99;36.32;100276.68;107680;1264;61222;-86
2023/04/25 08:55:49;;;;;;;18.00;13.90;;;;;;;27.21;35.10;100276.80;107398;1264;73106;-85
2023/04/25 08:58:18;;;;;;;18.40;15.70;;;;;;;27.40;35.49;100278.47;107403;1264;65817;-89
2023/04/25 09:00:47;;;;;;;15.40;13.80;;;;;;;27.61;35.17;100275.02;107178;1264;867029;-87
2023/04/25 09:03:16;;;;;;;22.80;15.90;;;;;;;27.71;34.48;100275.48;107778;1264;61275;-89
2023/04/25 09:05:57;;;;;;;18.20;12.70;;;;;;;27.67;34.59;100270.50;107905;1263;61329;-88
2023/04/25 09:08:27;;;;;;;16.00;13.50;;;;;;;27.59;33.33;100267.69;108007;1262;73446;-88
2023/04/25 09:10:55;;;;;;;13.00;11.00;;;;;;;27.54;33.44;100272.06;108473;1260;64551;-87
2023/04/25 09:13:31;;;;;;;8.70;6.10;;;;;;;27.42;33.13;100266.12;109268;1251;74545;-88
2023/04/25 09:16:23;;;;;;;11.40;8.10;;;;;;;27.19;32.71;100267.64;109034;1252;61636;-89
2023/04/25 09:19:23;;;;;;;11.10;8.40;;;;;;;27.08;33.66;100263.72;109071;1251;61381;-90
2023/04/25 09:22:14;;;;;;;14.50;8.60;;;;;;;27.02;33.69;100262.23;108637;1256;73081;-88
2023/04/25 09:24:49;;;;;;;12.80;8.90;;;;;;;26.98;33.85;100253.73;108261;1251;64833;-86
2023/04/25 09:27:26;;;;;;;15.30;8.60;;;;;;;26.91;33.76;100244.44;108732;1254;74895;-88
2023/04/25 09:30:29;;;;;;;11.50;7.80;;;;;;;26.77;34.34;100245.56;108852;1251;62313;-85
2023/04/25 09:33:36;;;;;;;11.30;6.20;;;;;;;26.64;34.30;100241.73;109065;1251;61364;-87
2023/04/25 09:36:11;;;;;;;8.20;5.30;;;;;;;26.56;33.52;100239.89;109231;1251;74546;-87
2023/04/25 09:39:19;;;;;;;8.90;5.30;;;;;;;26.65;34.48;100241.19;109205;1251;62434;-89
2023/04/25 09:42:28;;;;;;;4.30;3.80;;;;;;;26.71;34.13;100231.45;109560;1251;73543;-88
2023/04/25 09:45:26;;;;;;;9.10;5.60;;;;;;;26.79;33.54;100232.90;109348;1251;59058;-88
2023/04/25 09:48:25;;;;;;;6.30;3.80;;;;;;;26.81;32.59;100225.98;109119;1252;60890;-86
2023/04/25 09:51:18;;;;;;;12.20;5.60;;;;;;;26.63;33.00;100226.27;107412;1254;74046;-90
2023/04/25 09:53:50;;;;;;;7.80;5.00;;;;;;;26.46;32.94;100228.89;108070;1259;64577;-86
2023/04/25 09:56:27;;;;;;;8.50;4.90;;;;;;;26.36;32.98;100220.40;107890;1254;74844;-85
2023/04/25 09:58:55;;;;;;;5.80;4.20;;;;;;;26.39;33.68;100222.06;107410;1255;61160;-87
2023/04/25 10:01:22;;;;;;;8.60;4.60;;;;;;;26.42;33.19;100217.98;107537;1254;62057;-87
2023/04/25 10:04:03;;;;;;;8.60;4.90;;;;;;;26.27;32.90;100219.14;108219;1254;74012;-84
2023/04/25 10:10:11;;;;;;;7.90;4.70;;;;;;;26.01;33.32;100215.17;108829;1253;71812;-86
2023/04/25 10:12:44;;;;;;;11.90;4.90;;;;;;;26.03;34.00;100215.23;107399;1254;61445;-82
2023/04/25 10:15:12;;;;;;;8.80;4.90;;;;;;;26.08;33.49;100206.01;107689;1254;61230;-85
2023/04/25 10:17:40;;;;;;;8.90;5.10;;;;;;;26.16;33.36;100209.21;107311;1259;73638;-85
2023/04/25 10:20:10;;;;;;;11.20;5.30;;;;;;;26.18;32.74;100208.02;106858;1254;65568;-86
2023/04/25 10:22:42;;;;;;;8.90;4.70;;;;;;;26.07;32.20;100206.30;107007;1259;73562;-85
2023/04/25 10:25:09;;;;;;;7.60;5.40;;;;;;;25.84;32.79;100204.27;109386;1254;61149;-88
2023/04/25 10:27:37;;;;;;;16.00;5.90;;;;;;;25.54;32.99;100205.89;109339;1254;61169;-88
2023/04/25 10:30:12;;;;;;;8.30;6.00;;;;;;;25.18;33.73;100204.22;109308;1253;71958;-86
2023/04/25 10:32:40;;;;;;;7.70;5.60;;;;;;;24.85;34.77;100200.08;106416;1259;64552;-87
2023/04/25 10:35:11;;;;;;;9.30;6.40;;;;;;;24.68;35.25;100195.77;106904;1259;74169;-88
2023/04/25 10:37:38;;;;;;;8.00;5.80;;;;;;;24.57;35.71;100196.77;107055;1259;62520;-87
2023/04/25 10:40:10;;;;;;;8.20;4.80;;;;;;;24.52;35.93;100192.08;107026;1257;62248;-86
2023/04/25 10:42:37;;;;;;;10.80;6.50;;;;;;;24.59;36.47;100189.95;106892;1256;74404;-87
2023/04/25 10:45:05;;;;;;;11.10;6.20;;;;;;;24.72;36.27;100192.02;106916;1254;65828;-87
2023/04/25 10:47:36;;;;;;;8.30;5.80;;;;;;;24.93;35.40;100191.20;107459;1256;73607;-87
2023/04/25 10:50:08;;;;;;;12.00;6.50;;;;;;;25.06;34.77;100192.04;107188;1256;61257;-88
2023/04/25 10:52:35;;;;;;;6.90;6.20;;;;;;;25.05;34.59;100188.93;107677;1251;62383;-87
2023/04/25 10:55:06;;;;;;;7.60;5.30;;;;;;;24.98;34.80;100187.86;107880;1251;75287;-86
2023/04/25 10:57:43;;;;;;;9.80;5.70;;;;;;;24.87;34.80;100190.90;107664;1257;64648;-85
2023/04/25 11:00:15;;;;;;;10.10;5.80;;;;;;;24.79;35.44;100188.61;107428;1262;73892;-87
2023/04/25 11:02:46;;;;;;;9.50;6.10;;;;;;;24.76;36.30;100189.52;107561;1257;60981;-88
2023/04/25 11:05:31;;;;;;;10.20;6.20;;;;;;;24.73;35.57;100188.56;108080;1250;62184;-85
2023/04/25 11:08:02;;;;;;;6.60;5.30;;;;;;;24.68;35.53;100189.35;108716;1251;73721;-87
2023/04/25 11:10:55;;;;;;;;;;;;;;;24.53;35.48;100186.64;108779;1251;64735;-87
2023/04/25 11:13:30;;;;;;;8.90;6.90;;;;;;;24.41;35.54;100187.73;108325;1254;73492;-86
2023/04/25 11:15:58;;;;;;;10.50;7.40;;;;;;;24.28;35.96;100181.82;108079;1254;62132;-89
2023/04/25 11:18:45;;;;;;;9.50;6.10;;;;;;;24.22;36.62;100177.40;108692;1255;61283;-90
2023/04/25 11:21:13;;;;;;;7.80;6.10;;;;;;;24.16;36.73;100172.27;108158;1256;75057;-88
2023/04/25 11:23:56;;;;;;;14.20;7.60;;;;;;;24.13;37.19;100171.86;108703;1251;64828;-87
2023/04/25 11:26:26;;;;;;;10.10;7.00;;;;;;;24.13;37.53;100171.95;108323;1251;74050;-86
2023/04/25 11:29:00;;;;;;;11.50;6.70;;;;;;;24.07;36.59;100172.10;108262;1254;61698;-86
2023/04/25 11:31:29;;;;;;;8.60;5.50;;;;;;;23.88;36.62;100166.56;109229;1250;61351;-88
2023/04/25 11:34:18;;;;;;;10.60;5.70;;;;;;;23.86;37.84;100169.77;109080;1250;73680;-88
2023/04/25 11:37:15;;;;;;;11.20;6.20;;;;;;;23.98;36.70;100164.30;109442;1256;63677;-87
2023/04/25 11:40:11;;;;;;;11.50;6.70;;;;;;;24.02;36.63;100161.08;108882;1257;71492;-88
2023/04/25 11:42:46;;;;;;;14.70;7.20;;;;;;;23.86;37.39;100161.66;108443;1251;61280;-86
2023/04/25 11:45:14;;;;;;;8.90;5.90;;;;;;;23.61;37.57;100159.52;108989;1251;62415;-86